Time;durP1;ratioP1;P1;durP2;ratioP2;P2;SDS_P1;SDS_P2;PMS_P1;PMS_P2;Temp;Humidity;BMP_temperature;BMP_pressure;BME280_temperature;BME280_humidity;BME280_pressure;Samples;Min_cycle;Max_cycle;Signal;HPM_P1;HPM_P2
2021/09/01 00:01:45;;;;;;;35.28;18.65;;;;;;;;;;5084127;28;20028;-80
2021/09/01 00:04:11;;;;;;;30.90;18.02;;;;;;;;;;5083379;28;20033;-80
2021/09/01 00:06:37;;;;;;;31.90;17.55;;;;;;;;;;5086351;28;20063;-80
2021/09/01 00:09:04;;;;;;;27.13;15.57;;;;;;;;;;5089676;28;20031;-80
2021/09/01 00:11:30;;;;;;;34.75;15.32;;;;;;;;;;5087683;28;20051;-80
2021/09/01 00:13:56;;;;;;;31.05;15.57;;;;;;;;;;5086621;28;20029;-81
2021/09/01 00:16:30;;;;;;;31.70;17.38;;;;;;;;;;5084259;28;20033;-80
2021/09/01 00:19:04;;;;;;;30.98;16.77;;;;;;;;;;5084589;28;20092;-80
2021/09/01 00:21:30;;;;;;;32.47;16.45;;;;;;;;;;5084184;28;20134;-80
2021/09/01 00:23:56;;;;;;;30.20;16.15;;;;;;;;;;5083450;28;20485;-80
2021/09/01 00:26:22;;;;;;;31.85;16.83;;;;;;;;;;5089819;28;20020;-80
2021/09/01 00:28:48;;;;;;;35.50;17.77;;;;;;;;;;5086427;28;20035;-80
2021/09/01 00:31:15;;;;;;;36.35;17.58;;;;;;;;;;5084817;28;20043;-80
2021/09/01 00:33:42;;;;;;;37.80;18.17;;;;;;;;;;5084362;28;20028;-80
2021/09/01 00:36:08;;;;;;;39.53;18.15;;;;;;;;;;5083720;28;20032;-80
2021/09/01 00:38:34;;;;;;;35.15;17.45;;;;;;;;;;5084450;28;20090;-80
2021/09/01 00:41:00;;;;;;;37.03;17.15;;;;;;;;;;5082696;28;20092;-80
2021/09/01 00:43:26;;;;;;;37.80;19.70;;;;;;;;;;5083246;28;20078;-80
2021/09/01 00:45:52;;;;;;;37.55;19.55;;;;;;;;;;5084372;28;20036;-80
2021/09/01 00:48:18;;;;;;;39.10;19.73;;;;;;;;;;5084800;28;20028;-80
2021/09/01 00:50:49;;;;;;;41.45;20.08;;;;;;;;;;5083730;28;20036;-80
2021/09/01 00:53:15;;;;;;;39.72;19.85;;;;;;;;;;5084451;28;20504;-81
2021/09/01 00:55:44;;;;;;;36.00;19.48;;;;;;;;;;5084598;28;20034;-80
2021/09/01 00:58:10;;;;;;;37.38;19.35;;;;;;;;;;5082369;28;20039;-80
2021/09/01 01:00:52;;;;;;;40.05;19.02;;;;;;;;;;5080957;28;20542;-81
2021/09/01 01:03:18;;;;;;;36.08;18.98;;;;;;;;;;5081503;28;20063;-80
2021/09/01 01:05:44;;;;;;;35.15;19.00;;;;;;;;;;5083308;28;20024;-80
2021/09/01 01:08:11;;;;;;;29.55;16.88;;;;;;;;;;5080954;28;20024;-80
2021/09/01 01:10:38;;;;;;;31.77;18.20;;;;;;;;;;5080929;28;20435;-80
2021/09/01 01:13:04;;;;;;;33.17;16.83;;;;;;;;;;5081601;28;20051;-80
2021/09/01 01:15:30;;;;;;;33.47;17.40;;;;;;;;;;5080676;28;20096;-80
2021/09/01 01:17:56;;;;;;;29.90;17.52;;;;;;;;;;5082097;28;20481;-81
2021/09/01 01:20:22;;;;;;;35.15;18.55;;;;;;;;;;5081090;28;20028;-81
2021/09/01 01:22:49;;;;;;;34.42;16.42;;;;;;;;;;5082520;28;20031;-80
2021/09/01 01:25:34;;;;;;;34.22;18.33;;;;;;;;;;5082305;28;20008;-80
2021/09/01 01:28:01;;;;;;;27.02;16.05;;;;;;;;;;5093150;28;20033;-80
2021/09/01 01:30:27;;;;;;;32.25;17.13;;;;;;;;;;5089823;28;20025;-80
2021/09/01 01:32:53;;;;;;;36.80;18.40;;;;;;;;;;5083338;28;20020;-80
2021/09/01 01:35:29;;;;;;;34.90;17.00;;;;;;;;;;5083310;28;20481;-80
2021/09/01 01:37:56;;;;;;;34.40;17.20;;;;;;;;;;5082160;28;20036;-80
2021/09/01 01:40:22;;;;;;;35.80;18.90;;;;;;;;;;5082733;28;20039;-80
2021/09/01 01:42:50;;;;;;;37.38;18.60;;;;;;;;;;5084229;28;20088;-82
2021/09/01 01:45:17;;;;;;;33.58;18.40;;;;;;;;;;5082587;28;20028;-80
2021/09/01 01:47:43;;;;;;;31.58;17.17;;;;;;;;;;5081272;28;20066;-80
2021/09/01 01:50:09;;;;;;;30.73;16.88;;;;;;;;;;5081507;28;20038;-80
2021/09/01 01:52:35;;;;;;;29.50;16.13;;;;;;;;;;5082359;28;20023;-80
2021/09/01 01:55:02;;;;;;;40.58;16.05;;;;;;;;;;5082621;28;20024;-80
2021/09/01 01:57:27;;;;;;;29.17;16.02;;;;;;;;;;5080887;28;20025;-80
2021/09/01 01:59:53;;;;;;;29.40;15.77;;;;;;;;;;5081407;28;20037;-80
2021/09/01 02:02:19;;;;;;;31.08;15.52;;;;;;;;;;5082958;28;20036;-80
2021/09/01 02:04:45;;;;;;;32.90;15.70;;;;;;;;;;5086227;28;20023;-80
2021/09/01 02:07:12;;;;;;;34.83;18.77;;;;;;;;;;5089456;28;20036;-80
2021/09/01 02:09:38;;;;;;;33.85;16.67;;;;;;;;;;5082864;28;20025;-80
2021/09/01 02:12:04;;;;;;;34.78;18.48;;;;;;;;;;5080699;28;20082;-80
2021/09/01 02:14:30;;;;;;;33.53;17.25;;;;;;;;;;5079032;28;20063;-80
2021/09/01 02:16:56;;;;;;;33.67;16.48;;;;;;;;;;5080950;28;20062;-80
2021/09/01 02:19:22;;;;;;;35.13;18.60;;;;;;;;;;5079817;28;20400;-80
2021/09/01 02:21:48;;;;;;;35.22;18.33;;;;;;;;;;5080779;28;20029;-80
2021/09/01 02:24:14;;;;;;;35.28;19.00;;;;;;;;;;5080395;28;20050;-80
2021/09/01 02:26:40;;;;;;;35.33;17.25;;;;;;;;;;5081181;28;20028;-80
2021/09/01 02:29:06;;;;;;;37.53;18.25;;;;;;;;;;5080315;28;20050;-80
2021/09/01 02:31:32;;;;;;;32.65;18.40;;;;;;;;;;5084578;28;20088;-79
2021/09/01 02:33:58;;;;;;;35.03;18.70;;;;;;;;;;5088646;28;20046;-79
2021/09/01 02:36:24;;;;;;;33.85;17.50;;;;;;;;;;5089152;28;20039;-79
2021/09/01 02:38:50;;;;;;;47.17;18.33;;;;;;;;;;5081951;28;20060;-80
2021/09/01 02:41:16;;;;;;;30.02;16.60;;;;;;;;;;5079946;28;20059;-80
2021/09/01 02:43:43;;;;;;;39.13;18.70;;;;;;;;;;5079356;28;20036;-80
2021/09/01 02:46:09;;;;;;;45.22;18.95;;;;;;;;;;5081725;28;20541;-80
2021/09/01 02:48:35;;;;;;;40.53;20.33;;;;;;;;;;5080056;28;20079;-80
2021/09/01 02:51:01;;;;;;;43.60;21.00;;;;;;;;;;5079853;28;20048;-80
2021/09/01 02:53:27;;;;;;;40.92;21.60;;;;;;;;;;5080418;28;20023;-80
2021/09/01 02:55:53;;;;;;;41.22;22.40;;;;;;;;;;5078847;28;20099;-80
2021/09/01 02:58:19;;;;;;;42.90;20.25;;;;;;;;;;5081350;28;20048;-80
2021/09/01 03:00:45;;;;;;;48.25;20.77;;;;;;;;;;5080811;28;20058;-82
2021/09/01 03:03:11;;;;;;;47.88;22.65;;;;;;;;;;5081290;28;20044;-80
2021/09/01 03:05:36;;;;;;;44.50;20.80;;;;;;;;;;5080648;28;20124;-80
2021/09/01 03:08:03;;;;;;;43.25;19.88;;;;;;;;;;5079656;28;20100;-80
2021/09/01 03:10:29;;;;;;;37.05;19.98;;;;;;;;;;5079468;28;20469;-80
2021/09/01 03:12:55;;;;;;;42.15;18.00;;;;;;;;;;5080050;28;20078;-79
2021/09/01 03:15:20;;;;;;;40.25;20.48;;;;;;;;;;5080181;28;20047;-80
2021/09/01 03:17:46;;;;;;;45.30;20.23;;;;;;;;;;5083969;28;20037;-80
2021/09/01 03:20:13;;;;;;;41.25;20.27;;;;;;;;;;5082526;28;20035;-80
2021/09/01 03:22:39;;;;;;;45.75;20.58;;;;;;;;;;5083963;28;20124;-80
2021/09/01 03:25:05;;;;;;;45.90;20.63;;;;;;;;;;5084639;28;20072;-79
2021/09/01 03:27:31;;;;;;;39.40;20.05;;;;;;;;;;5083723;28;20051;-79
2021/09/01 03:29:57;;;;;;;43.83;20.42;;;;;;;;;;5084130;28;20067;-79
2021/09/01 03:32:23;;;;;;;44.80;21.67;;;;;;;;;;5084992;28;20043;-80
2021/09/01 03:34:49;;;;;;;39.42;18.80;;;;;;;;;;5085304;28;20039;-80
2021/09/01 03:37:15;;;;;;;39.40;20.40;;;;;;;;;;5085467;28;20115;-80
2021/09/01 03:39:41;;;;;;;39.17;19.00;;;;;;;;;;5085472;28;20080;-80
2021/09/01 03:42:07;;;;;;;40.17;19.00;;;;;;;;;;5085988;28;20036;-80
2021/09/01 03:44:33;;;;;;;33.95;18.02;;;;;;;;;;5084316;28;20081;-80
2021/09/01 03:46:59;;;;;;;36.38;18.80;;;;;;;;;;5080472;28;20033;-80
2021/09/01 03:49:25;;;;;;;35.65;18.00;;;;;;;;;;5082560;28;20358;-80
2021/09/01 03:51:51;;;;;;;32.03;17.35;;;;;;;;;;5082543;28;20088;-80
2021/09/01 03:54:17;;;;;;;35.30;17.88;;;;;;;;;;5082816;28;20060;-80
2021/09/01 03:56:43;;;;;;;33.72;16.88;;;;;;;;;;5084249;28;20020;-80
2021/09/01 03:59:09;;;;;;;42.35;18.98;;;;;;;;;;5083062;28;20035;-79
2021/09/01 04:01:36;;;;;;;36.92;18.88;;;;;;;;;;5083073;28;20370;-80
2021/09/01 04:04:05;;;;;;;53.13;20.88;;;;;;;;;;5084550;28;20035;-80
2021/09/01 04:06:31;;;;;;;41.80;18.70;;;;;;;;;;5083995;28;20035;-80
2021/09/01 04:08:57;;;;;;;35.42;17.80;;;;;;;;;;5082320;28;20029;-79
2021/09/01 04:11:23;;;;;;;33.67;17.27;;;;;;;;;;5084054;28;20045;-80
2021/09/01 04:13:50;;;;;;;37.35;18.77;;;;;;;;;;5082977;28;20405;-80
2021/09/01 04:16:16;;;;;;;34.17;17.08;;;;;;;;;;5083436;28;20443;-80
2021/09/01 04:18:42;;;;;;;34.85;17.80;;;;;;;;;;5084065;28;20039;-80
2021/09/01 04:21:08;;;;;;;41.15;17.58;;;;;;;;;;5083241;28;20032;-80
2021/09/01 04:23:34;;;;;;;31.52;16.42;;;;;;;;;;5083184;28;20036;-80
2021/09/01 04:26:00;;;;;;;34.83;16.15;;;;;;;;;;5083132;28;20032;-80
2021/09/01 04:28:26;;;;;;;30.48;16.20;;;;;;;;;;5082736;28;20430;-80
2021/09/01 04:30:52;;;;;;;38.17;17.92;;;;;;;;;;5083436;28;20060;-79
2021/09/01 04:33:18;;;;;;;34.22;16.67;;;;;;;;;;5090337;28;20040;-79
2021/09/01 04:35:44;;;;;;;29.40;16.42;;;;;;;;;;5088283;28;20054;-79
2021/09/01 04:38:10;;;;;;;39.45;18.38;;;;;;;;;;5089755;28;20031;-79
2021/09/01 04:40:36;;;;;;;36.30;16.60;;;;;;;;;;5088553;28;20066;-79
2021/09/01 04:43:07;;;;;;;40.50;18.58;;;;;;;;;;5092587;28;20048;-81
2021/09/01 04:45:33;;;;;;;35.70;17.95;;;;;;;;;;5082954;28;20021;-80
2021/09/01 04:47:59;;;;;;;35.97;17.67;;;;;;;;;;5083166;28;20025;-80
2021/09/01 04:50:25;;;;;;;35.83;18.23;;;;;;;;;;5082028;28;20031;-80
2021/09/01 04:52:51;;;;;;;39.35;18.80;;;;;;;;;;5061214;28;20033;-80
2021/09/01 04:55:17;;;;;;;37.13;18.90;;;;;;;;;;5061639;28;20032;-80
2021/09/01 04:57:44;;;;;;;39.33;18.92;;;;;;;;;;5061778;28;20024;-80
2021/09/01 05:00:10;;;;;;;37.47;19.42;;;;;;;;;;5062518;28;20509;-80
2021/09/01 05:02:36;;;;;;;42.65;19.63;;;;;;;;;;5064363;28;20047;-80
2021/09/01 05:05:03;;;;;;;42.42;17.92;;;;;;;;;;5082653;28;20024;-80
2021/09/01 05:07:28;;;;;;;37.78;17.58;;;;;;;;;;5082993;28;20051;-80
2021/09/01 05:09:54;;;;;;;36.95;17.75;;;;;;;;;;5082204;28;20020;-80
2021/09/01 05:12:21;;;;;;;35.10;16.63;;;;;;;;;;5082329;28;20571;-80
2021/09/01 05:14:47;;;;;;;35.22;17.65;;;;;;;;;;5081880;28;20028;-80
2021/09/01 05:17:13;;;;;;;43.22;19.17;;;;;;;;;;5081057;28;20705;-80
2021/09/01 05:19:39;;;;;;;38.13;18.55;;;;;;;;;;5081410;28;20028;-80
2021/09/01 05:22:06;;;;;;;35.13;17.48;;;;;;;;;;5082427;28;20028;-80
2021/09/01 05:24:47;;;;;;;34.17;18.52;;;;;;;;;;5081243;28;20032;-80
2021/09/01 05:27:18;;;;;;;39.28;19.17;;;;;;;;;;5081694;28;20066;-80
2021/09/01 05:29:45;;;;;;;42.70;19.85;;;;;;;;;;5081908;28;20035;-79
2021/09/01 05:32:12;;;;;;;36.90;19.95;;;;;;;;;;5084797;28;20086;-80
2021/09/01 05:34:38;;;;;;;39.33;19.20;;;;;;;;;;5086423;28;20036;-80
2021/09/01 05:37:05;;;;;;;38.15;19.48;;;;;;;;;;5084118;28;20028;-80
2021/09/01 05:39:32;;;;;;;38.92;18.58;;;;;;;;;;5082111;28;20028;-80
2021/09/01 05:41:58;;;;;;;42.47;20.10;;;;;;;;;;5087032;28;20034;-80
2021/09/01 05:44:24;;;;;;;40.63;19.55;;;;;;;;;;5086625;28;20028;-80
2021/09/01 05:46:51;;;;;;;40.15;19.83;;;;;;;;;;5086732;28;20084;-80
2021/09/01 05:49:17;;;;;;;42.20;19.95;;;;;;;;;;5085725;28;20058;-80
2021/09/01 05:51:43;;;;;;;42.03;20.48;;;;;;;;;;5086319;28;20024;-79
2021/09/01 05:54:09;;;;;;;48.60;20.63;;;;;;;;;;5084579;28;20036;-80
2021/09/01 05:56:37;;;;;;;41.15;21.00;;;;;;;;;;5085396;28;20540;-80
2021/09/01 05:59:10;;;;;;;41.88;21.05;;;;;;;;;;5083890;28;20036;-80
2021/09/01 06:01:42;;;;;;;39.50;19.38;;;;;;;;;;5087051;28;20088;-80
2021/09/01 06:04:09;;;;;;;38.42;20.52;;;;;;;;;;5088072;28;20220;-79
2021/09/01 06:06:38;;;;;;;36.28;17.77;;;;;;;;;;5087688;28;20020;-79
2021/09/01 06:09:07;;;;;;;26.48;16.33;;;;;;;;;;5085073;28;20390;-80
2021/09/01 06:11:34;;;;;;;27.63;15.40;;;;;;;;;;5083513;28;20076;-80
2021/09/01 06:14:00;;;;;;;28.52;16.00;;;;;;;;;;5084050;28;20062;-80
2021/09/01 06:16:26;;;;;;;34.50;18.52;;;;;;;;;;5082884;28;20063;-80
2021/09/01 06:18:52;;;;;;;32.78;16.80;;;;;;;;;;5080759;28;20493;-79
2021/09/01 06:21:18;;;;;;;40.75;18.83;;;;;;;;;;5079567;28;20064;-79
2021/09/01 06:23:45;;;;;;;39.53;18.90;;;;;;;;;;5078319;28;20116;-79
2021/09/01 06:26:11;;;;;;;39.35;20.88;;;;;;;;;;5079826;28;20112;-79
2021/09/01 06:28:38;;;;;;;48.90;21.50;;;;;;;;;;5081283;28;20055;-82
2021/09/01 06:31:05;;;;;;;46.95;20.92;;;;;;;;;;5081552;28;20028;-81
2021/09/01 06:33:31;;;;;;;37.05;20.83;;;;;;;;;;5077589;28;20158;-83
2021/09/01 06:35:57;;;;;;;34.40;17.45;;;;;;;;;;5080947;28;20021;-79
2021/09/01 06:38:23;;;;;;;29.15;17.40;;;;;;;;;;5079228;28;20033;-80
2021/09/01 06:40:49;;;;;;;35.22;18.65;;;;;;;;;;5078164;28;20107;-79
2021/09/01 06:43:15;;;;;;;37.10;20.65;;;;;;;;;;5078726;28;20103;-80
2021/09/01 06:45:41;;;;;;;32.95;18.58;;;;;;;;;;5073347;28;20508;-77
2021/09/01 06:48:10;;;;;;;41.05;18.73;;;;;;;;;;5070888;28;20032;-77
2021/09/01 06:50:36;;;;;;;31.83;17.73;;;;;;;;;;5072345;28;20028;-78
2021/09/01 06:53:02;;;;;;;27.52;17.17;;;;;;;;;;5078526;28;20029;-81
2021/09/01 06:55:28;;;;;;;31.60;18.58;;;;;;;;;;5079750;28;20028;-80
2021/09/01 06:57:54;;;;;;;29.55;18.33;;;;;;;;;;5080935;28;20021;-80
2021/09/01 07:00:20;;;;;;;34.20;18.58;;;;;;;;;;5080514;28;20036;-80
2021/09/01 07:02:47;;;;;;;26.70;16.67;;;;;;;;;;5083610;28;20031;-81
2021/09/01 07:05:14;;;;;;;27.38;16.25;;;;;;;;;;5086305;28;20061;-80
2021/09/01 07:07:41;;;;;;;28.98;16.08;;;;;;;;;;5087845;28;20046;-80
2021/09/01 07:10:08;;;;;;;24.77;15.73;;;;;;;;;;5082154;28;20029;-80
2021/09/01 07:12:34;;;;;;;28.17;16.92;;;;;;;;;;5080523;28;20017;-80
2021/09/01 07:15:00;;;;;;;27.48;15.38;;;;;;;;;;5084077;28;20028;-80
2021/09/01 07:17:26;;;;;;;25.58;16.02;;;;;;;;;;5082248;28;20475;-81
2021/09/01 07:19:52;;;;;;;25.63;15.90;;;;;;;;;;5080207;28;20103;-79
2021/09/01 07:22:18;;;;;;;24.52;15.27;;;;;;;;;;5074886;28;20052;-78
2021/09/01 07:24:44;;;;;;;19.80;13.63;;;;;;;;;;5078704;28;20097;-79
2021/09/01 07:27:13;;;;;;;20.75;14.20;;;;;;;;;;5078686;28;20021;-80
2021/09/01 07:29:39;;;;;;;21.67;14.23;;;;;;;;;;5080621;28;20555;-80
2021/09/01 07:32:05;;;;;;;24.55;14.43;;;;;;;;;;5080404;28;20039;-80
2021/09/01 07:34:31;;;;;;;23.70;15.20;;;;;;;;;;5080767;28;20036;-80
2021/09/01 07:36:57;;;;;;;19.33;13.45;;;;;;;;;;5075979;28;20032;-80
2021/09/01 07:39:24;;;;;;;19.15;12.60;;;;;;;;;;5075972;28;20471;-80
2021/09/01 07:41:50;;;;;;;26.60;13.93;;;;;;;;;;5075871;28;20024;-79
2021/09/01 07:44:16;;;;;;;22.65;13.63;;;;;;;;;;5076272;28;20082;-80
2021/09/01 07:46:42;;;;;;;20.42;13.27;;;;;;;;;;5076426;28;20020;-80
2021/09/01 07:49:08;;;;;;;20.02;13.35;;;;;;;;;;5072197;28;20020;-81
2021/09/01 07:51:34;;;;;;;20.70;13.50;;;;;;;;;;5073843;28;20205;-80
2021/09/01 07:54:00;;;;;;;20.70;13.05;;;;;;;;;;5074816;28;20078;-80
2021/09/01 07:56:26;;;;;;;22.88;14.38;;;;;;;;;;5076480;28;20029;-80
2021/09/01 07:58:52;;;;;;;19.02;12.02;;;;;;;;;;5074242;28;20031;-80
2021/09/01 08:01:18;;;;;;;18.58;13.05;;;;;;;;;;5075688;28;20111;-80
2021/09/01 08:03:44;;;;;;;20.88;13.18;;;;;;;;;;5074923;28;20500;-80
2021/09/01 08:06:10;;;;;;;17.13;12.48;;;;;;;;;;5075382;28;20024;-80
2021/09/01 08:08:37;;;;;;;19.27;12.40;;;;;;;;;;5076018;28;20481;-80
2021/09/01 08:11:03;;;;;;;19.25;12.60;;;;;;;;;;5076173;28;20096;-80
2021/09/01 08:13:29;;;;;;;16.75;11.63;;;;;;;;;;5076458;28;20056;-80
2021/09/01 08:15:55;;;;;;;16.13;11.77;;;;;;;;;;5076613;28;20029;-80
2021/09/01 08:18:21;;;;;;;15.55;11.27;;;;;;;;;;5077962;28;20032;-80
2021/09/01 08:20:47;;;;;;;18.77;11.13;;;;;;;;;;5079996;28;20107;-80
2021/09/01 08:23:13;;;;;;;16.15;10.57;;;;;;;;;;5084182;28;20036;-80
2021/09/01 08:25:39;;;;;;;15.38;10.48;;;;;;;;;;5083877;28;20027;-80
2021/09/01 08:28:05;;;;;;;15.10;10.13;;;;;;;;;;5081706;28;20052;-80
2021/09/01 08:30:31;;;;;;;14.27;9.38;;;;;;;;;;5081655;28;20048;-80
2021/09/01 08:32:57;;;;;;;12.68;9.63;;;;;;;;;;5102798;22;20059;-77
2021/09/01 08:35:23;;;;;;;15.30;9.07;;;;;;;;;;5094800;28;20032;-77
2021/09/01 08:37:50;;;;;;;13.30;8.50;;;;;;;;;;5093205;28;20056;-77
2021/09/01 08:40:16;;;;;;;13.27;8.32;;;;;;;;;;5074132;28;20121;-77
2021/09/01 08:42:46;;;;;;;9.35;7.00;;;;;;;;;;5086234;28;20024;-77
2021/09/01 08:45:12;;;;;;;13.73;8.00;;;;;;;;;;5072713;28;20051;-77
2021/09/01 08:47:39;;;;;;;10.98;7.53;;;;;;;;;;5055157;28;20469;-77
2021/09/01 08:50:07;;;;;;;8.30;7.07;;;;;;;;;;5072209;28;20025;-78
2021/09/01 08:52:34;;;;;;;11.48;6.65;;;;;;;;;;5065553;28;20020;-76
2021/09/01 08:55:01;;;;;;;9.10;6.50;;;;;;;;;;5075451;28;20109;-77
2021/09/01 08:57:27;;;;;;;7.97;6.35;;;;;;;;;;5092996;28;20039;-77
2021/09/01 08:59:53;;;;;;;10.20;6.63;;;;;;;;;;5092196;28;20028;-78
2021/09/01 09:02:26;;;;;;;9.05;6.25;;;;;;;;;;5074067;28;20024;-78
2021/09/01 09:04:52;;;;;;;8.77;5.63;;;;;;;;;;5072541;28;20107;-78
2021/09/01 09:07:18;;;;;;;7.80;5.90;;;;;;;;;;5072646;28;20095;-77
2021/09/01 09:09:44;;;;;;;13.40;6.03;;;;;;;;;;5071839;28;20111;-77
2021/09/01 09:12:10;;;;;;;10.00;5.35;;;;;;;;;;5072102;28;20024;-78
2021/09/01 09:14:38;;;;;;;7.47;5.57;;;;;;;;;;5071955;28;20040;-78
2021/09/01 09:17:12;;;;;;;10.80;6.00;;;;;;;;;;5072241;28;20032;-78
2021/09/01 09:19:42;;;;;;;9.18;5.20;;;;;;;;;;5071581;28;20074;-78
2021/09/01 09:22:08;;;;;;;8.15;5.22;;;;;;;;;;5061438;28;20089;-77
2021/09/01 09:24:35;;;;;;;7.85;5.10;;;;;;;;;;5091961;28;20495;-78
2021/09/01 09:27:01;;;;;;;6.78;4.55;;;;;;;;;;5074184;28;20028;-78
2021/09/01 09:29:30;;;;;;;6.80;4.78;;;;;;;;;;5091506;28;20032;-78
2021/09/01 09:32:00;;;;;;;7.25;4.35;;;;;;;;;;5073847;28;20034;-78
2021/09/01 09:34:41;;;;;;;7.03;4.30;;;;;;;;;;5049383;28;20060;-79
2021/09/01 09:37:08;;;;;;;6.65;4.55;;;;;;;;;;5073094;28;20032;-79
2021/09/01 09:39:41;;;;;;;6.45;4.38;;;;;;;;;;5067570;28;20024;-77
2021/09/01 09:42:07;;;;;;;8.88;4.25;;;;;;;;;;5049400;28;20663;-78
2021/09/01 09:44:33;;;;;;;8.55;4.55;;;;;;;;;;5066867;28;20543;-77
2021/09/01 09:46:59;;;;;;;7.15;4.18;;;;;;;;;;5068718;28;20028;-78
2021/09/01 09:49:29;;;;;;;7.28;4.75;;;;;;;;;;5069503;28;20025;-78
2021/09/01 09:51:55;;;;;;;8.25;4.70;;;;;;;;;;5085567;28;20037;-78
2021/09/01 09:54:23;;;;;;;5.75;4.60;;;;;;;;;;5070449;28;20028;-78
2021/09/01 09:56:50;;;;;;;9.10;4.68;;;;;;;;;;5066008;28;20032;-79
2021/09/01 09:59:17;;;;;;;6.80;4.60;;;;;;;;;;5069159;28;20013;-78
2021/09/01 10:01:44;;;;;;;6.10;4.40;;;;;;;;;;5070021;28;20103;-78
2021/09/01 10:04:10;;;;;;;8.30;4.72;;;;;;;;;;5070425;28;20143;-78
2021/09/01 10:06:36;;;;;;;8.90;5.00;;;;;;;;;;5070056;28;20028;-79
2021/09/01 10:09:03;;;;;;;9.00;4.20;;;;;;;;;;5070791;28;20032;-76
2021/09/01 10:11:29;;;;;;;6.72;5.05;;;;;;;;;;5070349;28;20087;-79
2021/09/01 10:13:56;;;;;;;5.45;4.43;;;;;;;;;;5072845;28;20040;-80
2021/09/01 10:16:22;;;;;;;9.52;4.18;;;;;;;;;;5075717;28;20028;-78
2021/09/01 10:18:52;;;;;;;6.80;4.30;;;17.20;99.90;;;;;;5089788;28;20024;-77
2021/09/01 10:21:19;;;;;;;5.65;4.10;;;;;;;;;;5096600;28;20046;-80
2021/09/01 10:23:46;;;;;;;8.63;5.07;;;;;;;;;;5094815;28;20055;-80
2021/09/01 10:26:27;;;;;;;5.95;4.53;;;;;;;;;;5094400;28;20156;-78
2021/09/01 10:28:55;;;;;;;6.30;4.57;;;;;;;;;;5097714;28;20027;-80
2021/09/01 10:31:22;;;;;;;5.60;4.10;;;;;;;;;;5080849;28;20024;-80
2021/09/01 10:33:52;;;;;;;6.70;4.70;;;;;;;;;;5099941;28;20036;-79
2021/09/01 10:36:24;;;;;;;7.03;4.78;;;;;;;;;;5092499;28;20021;-80
2021/09/01 10:38:54;;;;;;;6.53;4.53;;;;;;;;;;5080281;28;20104;-79
2021/09/01 10:41:31;;;;;;;6.28;4.30;;;;;;;;;;5078442;28;20179;-79
2021/09/01 10:43:57;;;;;;;6.90;4.72;;;;;;;;;;5078817;28;20044;-79
2021/09/01 10:46:23;;;;;;;6.45;3.90;;;;;;;;;;5076749;28;20028;-78
2021/09/01 10:48:55;;;;;;;6.75;4.03;;;;;;;;;;5080027;28;20024;-79
2021/09/01 10:51:26;;;;;;;8.73;4.60;;;;;;;;;;5098466;28;20020;-79
2021/09/01 10:53:52;;;;;;;8.65;4.47;;;;;;;;;;5070102;28;20062;-79
2021/09/01 10:56:18;;;;;;;8.88;4.30;;;;;;;;;;5076240;28;20539;-80
2021/09/01 10:58:44;;;;;;;6.53;4.32;;;;;;;;;;5096560;28;20085;-80
2021/09/01 11:01:13;;;;;;;5.68;4.63;;;;;;;;;;5098535;28;20039;-79
2021/09/01 11:03:41;;;;;;;6.43;4.32;;;;;;;;;;5079205;28;20024;-79
2021/09/01 11:06:14;;;;;;;7.00;4.25;;;;;;;;;;5079967;28;20020;-79
2021/09/01 11:08:56;;;;;;;6.07;4.43;;;;;;;;;;5097073;28;20024;-80
2021/09/01 11:11:22;;;;;;;7.10;4.00;;;;;;;;;;5097977;28;20024;-78
2021/09/01 11:13:48;;;;;;;4.53;3.78;;;;;;;;;;5081622;28;20036;-78
2021/09/01 11:16:18;;;;;;;8.15;3.70;;;;;;;;;;5082971;28;20028;-78
2021/09/01 11:19:00;;;;;;;5.43;3.72;;;;;;;;;;5081961;28;20036;-80
2021/09/01 11:21:27;;;;;;;5.05;3.83;;;;;;;;;;5078363;28;20492;-80
2021/09/01 11:23:54;;;;;;;4.13;3.58;;;;;;;;;;5095782;28;20036;-80
2021/09/01 11:26:20;;;;;;;4.97;3.90;;;;;;;;;;5095548;28;20063;-79
2021/09/01 11:28:48;;;;;;;4.85;3.30;;;;;;;;;;5094277;28;20043;-79
2021/09/01 11:31:21;;;;;;;9.38;5.07;;;;;;;;;;5077306;28;20028;-79
2021/09/01 11:33:47;;;;;;;4.95;3.17;;;;;;;;;;5096570;28;20040;-80
2021/09/01 11:36:13;;;;;;;6.35;2.90;;;;;;;;;;5088424;28;20499;-79
2021/09/01 11:38:45;;;;;;;4.60;3.03;;;;;;;;;;5057214;28;20178;-79
2021/09/01 11:41:12;;;;;;;3.35;2.75;;;;;;;;;;5082648;28;20519;-79
2021/09/01 11:43:38;;;;;;;4.32;3.20;;;;;;;;;;5096517;28;20047;-79
2021/09/01 11:46:04;;;;;;;5.13;3.65;;;;;;;;;;5095774;28;20055;-79
2021/09/01 11:48:43;;;;;;;5.88;3.35;;;;;;;;;;5095105;28;20027;-79
2021/09/01 11:51:09;;;;;;;4.00;2.95;;;;;;;;;;5077193;28;20024;-79
2021/09/01 11:53:39;;;;;;;8.00;4.18;;;;;;;;;;5077969;28;20032;-79
2021/09/01 11:56:07;;;;;;;5.00;3.53;;;;;;;;;;5096085;28;20111;-79
2021/09/01 11:58:33;;;;;;;4.82;3.33;;;;;;;;;;5096432;28;20020;-78
2021/09/01 12:00:59;;;;;;;7.43;3.50;;;;;;;;;;5059507;28;20040;-78
2021/09/01 12:03:26;;;;;;;5.80;3.10;;;;;;;;;;5075960;28;20025;-79
2021/09/01 12:06:05;;;;;;;4.80;3.42;;;;;;;;;;5090192;28;20020;-79
2021/09/01 12:08:40;;;;;;;4.18;3.17;;;;;;;;;;5094227;28;20021;-80
2021/09/01 12:11:06;;;;;;;6.10;3.35;;;;;;;;;;5096191;28;20020;-79
2021/09/01 12:13:40;;;;;;;6.07;3.20;;;;;;;;;;5070323;28;20169;-79
2021/09/01 12:16:06;;;;;;;4.65;3.40;;;;;;;;;;5086437;28;20115;-80
2021/09/01 12:18:51;;;;;;;5.43;3.20;;;;;;;;;;5089744;28;20032;-78
2021/09/01 12:21:17;;;;;;;6.88;3.03;;;;;;;;;;5085574;28;20024;-81
2021/09/01 12:23:44;;;;;;;4.93;3.10;;;;;;;;;;5083529;28;20197;-80
2021/09/01 12:26:10;;;;;;;5.25;3.10;;;;;;;;;;5096703;28;20060;-79
2021/09/01 12:28:48;;;;;;;3.42;2.50;;;;;;;;;;5099269;28;20031;-79
2021/09/01 12:31:24;;;;;;;7.47;3.35;;;;;;;;;;5101493;28;20020;-79
2021/09/01 12:33:51;;;;;;;3.78;2.92;;;;;;;;;;5094036;28;20036;-79
2021/09/01 12:36:25;;;;;;;3.88;2.90;;;;;;;;;;5092547;28;20086;-79
2021/09/01 12:38:52;;;;;;;6.93;2.90;;;;;;;;;;5089328;28;20024;-81
2021/09/01 12:41:22;;;;;;;5.22;2.55;;;;;;;;;;5084953;28;20085;-79
2021/09/01 12:43:48;;;;;;;3.58;2.60;;;;;;;;;;5086479;28;20024;-81
2021/09/01 12:46:22;;;;;;;3.78;3.13;;;;;;;;;;5069849;28;20553;-80
2021/09/01 12:48:54;;;;;;;6.22;3.00;;;;;;;;;;5089968;28;20031;-79
2021/09/01 12:51:23;;;;;;;4.65;3.08;;;;;;;;;;5092422;28;20107;-81
2021/09/01 12:53:51;;;;;;;5.50;2.80;;;;;;;;;;5086555;28;20028;-81
2021/09/01 12:56:33;;;;;;;4.75;2.50;;;;;;;;;;5067371;28;20387;-79
2021/09/01 12:58:59;;;;;;;6.45;2.83;;;;;;;;;;5065363;28;20041;-80
2021/09/01 13:01:25;;;;;;;5.25;3.00;;;;;;;;;;5086565;28;20043;-80
2021/09/01 13:03:51;;;;;;;6.38;2.97;;;;;;;;;;5083572;28;20032;-80
2021/09/01 13:06:17;;;;;;;6.25;3.70;;;;;;;;;;5087111;28;20412;-79
2021/09/01 13:08:43;;;;;;;5.45;3.10;;;;;;;;;;5085899;28;20028;-79
2021/09/01 13:11:09;;;;;;;5.50;3.30;;;;;;;;;;5090124;28;20105;-80
2021/09/01 13:13:35;;;;;;;7.30;3.13;;;;;;;;;;5084601;28;20054;-80
2021/09/01 13:16:01;;;;;;;5.57;2.97;;;;;;;;;;5084581;28;20420;-79
2021/09/01 13:18:27;;;;;;;4.65;2.70;;;;;;;;;;5093191;28;20035;-79
2021/09/01 13:20:55;;;;;;;3.30;2.72;;;;;;;;;;5078948;28;20032;-79
2021/09/01 13:23:22;;;;;;;6.03;2.90;;;;;;;;;;5085582;28;20150;-81
2021/09/01 13:25:48;;;;;;;3.92;2.88;;;;;;;;;;5067164;28;20480;-80
2021/09/01 13:28:14;;;;;;;4.18;2.90;;;;;;;;;;5085065;28;20511;-80
2021/09/01 13:30:45;;;;;;;6.55;3.00;;;;;;;;;;5085470;28;20124;-81
2021/09/01 13:33:11;;;;;;;4.82;3.15;;;;;;;;;;5086706;28;20039;-81
2021/09/01 13:35:37;;;;;;;3.47;2.95;;;;;;;;;;5087127;28;20055;-81
2021/09/01 13:38:03;;;;;;;6.97;3.45;;;;;;;;;;5067298;28;20028;-81
2021/09/01 13:40:29;;;;;;;5.72;3.50;;;;;;;;;;5068662;28;20039;-81
2021/09/01 13:42:55;;;;;;;4.15;3.17;;;;;;;;;;5086187;28;20097;-79
2021/09/01 13:45:21;;;;;;;5.38;3.17;;;;;;;;;;5086801;28;20411;-81
2021/09/01 13:47:47;;;;;;;6.22;3.50;;;;;;;;;;5085994;28;20592;-81
2021/09/01 13:50:13;;;;;;;7.47;3.45;;;;;;;;;;5068840;28;20043;-80
2021/09/01 13:52:39;;;;;;;3.90;2.95;;;;;;;;;;5087233;28;20056;-81
2021/09/01 13:55:06;;;;;;;5.00;3.15;;;;;;;;;;5082388;28;20131;-81
2021/09/01 13:57:32;;;;;;;4.43;2.80;;;;;;;;;;5081902;28;20016;-80
2021/09/01 14:00:00;;;;;;;5.43;2.60;;;;;;;;;;5063120;28;20041;-79
2021/09/01 14:02:26;;;;;;;4.85;2.90;;;;;;;;;;5081623;28;20398;-78
2021/09/01 14:04:52;;;;;;;6.13;3.28;;;;;;;;;;5081961;28;20034;-79
2021/09/01 14:07:18;;;;;;;4.43;3.00;;;;;;;;;;5080385;28;20076;-79
2021/09/01 14:09:44;;;;;;;4.03;2.78;;;;;;;;;;5082640;28;20063;-79
2021/09/01 14:12:10;;;;;;;6.70;3.35;;;;;;;;;;5080893;28;20020;-80
2021/09/01 14:14:37;;;;;;;5.32;2.67;;;;;;;;;;5065040;28;20094;-80
2021/09/01 14:17:03;;;;;;;4.30;3.30;;;;;;;;;;5063761;28;20037;-80
2021/09/01 14:19:29;;;;;;;5.38;3.53;;;;;;;;;;5084965;28;20071;-80
2021/09/01 14:21:55;;;;;;;3.80;3.08;;;;;;;;;;5070670;28;20048;-79
2021/09/01 14:24:21;;;;;;;5.53;2.90;;;;;;;;;;5069500;28;20038;-79
2021/09/01 14:26:47;;;;;;;6.00;3.42;;;;;;;;;;5078307;28;20021;-80